Time;durP1;ratioP1;P1;durP2;ratioP2;P2;SDS_P1;SDS_P2;PMS_P1;PMS_P2;Temp;Humidity;BMP_temperature;BMP_pressure;BME280_temperature;BME280_humidity;BME280_pressure;Samples;Min_cycle;Max_cycle;Signal;HPM_P1;HPM_P2
2023/03/14 00:00:48;;;;;;;20.30;14.47;;;;;;;4.66;100.00;101700.69;2080370;28;20346;-60
2023/03/14 00:01:48;;;;;;;18.27;13.67;;;;;;;4.65;100.00;101693.63;2082673;28;20209;-60
2023/03/14 00:02:53;;;;;;;20.07;15.17;;;;;;;4.62;100.00;101697.09;2082524;28;20617;-61
2023/03/14 00:03:54;;;;;;;16.83;13.32;;;;;;;4.60;100.00;101699.41;2080242;28;20180;-61
2023/03/14 00:04:56;;;;;;;19.27;14.17;;;;;;;4.61;100.00;101694.72;2080099;28;20187;-60
2023/03/14 00:05:56;;;;;;;18.38;14.05;;;;;;;4.61;100.00;101690.00;2079982;28;20182;-61
2023/03/14 00:06:57;;;;;;;19.57;13.97;;;;;;;4.59;100.00;101691.53;2072693;28;20264;-60
2023/03/14 00:07:57;;;;;;;21.50;15.33;;;;;;;4.58;100.00;101692.69;2078893;28;20202;-61
2023/03/14 00:08:57;;;;;;;28.93;15.77;;;;;;;4.57;100.00;101694.66;2079549;28;20210;-61
2023/03/14 00:09:58;;;;;;;34.63;15.97;;;;;;;4.54;100.00;101683.59;2079855;28;20236;-60
2023/03/14 00:11:04;;;;;;;37.20;18.27;;;;;;;4.49;100.00;101698.44;2083535;28;20281;-61
2023/03/14 00:12:07;;;;;;;34.05;16.85;;;;;;;3.78;100.00;101577.59;2077101;28;20172;-61
2023/03/14 00:13:07;;;;;;;32.83;16.45;;;;;;;3.53;100.00;101527.00;2076232;28;20201;-60
2023/03/14 00:14:08;;;;;;;35.20;17.23;;;;;;;4.40;100.00;101670.44;2079983;28;20204;-61
2023/03/14 00:15:09;;;;;;;32.33;16.77;;;;;;;4.45;100.00;101678.38;2079107;28;20189;-60
2023/03/14 00:16:12;;;;;;;34.42;16.33;;;;;;;4.45;100.00;101681.09;2072169;28;20183;-61
2023/03/14 00:17:13;;;;;;;35.80;17.00;;;;;;;4.42;100.00;101683.78;2080565;28;20211;-61
2023/03/14 00:18:14;;;;;;;35.65;17.65;;;;;;;4.31;100.00;101669.09;2080002;28;20224;-61
2023/03/14 00:19:14;;;;;;;39.73;17.23;;;;;;;4.43;100.00;101682.63;2079884;28;20193;-61
2023/03/14 00:20:15;;;;;;;41.23;18.33;;;;;;;4.46;100.00;101684.66;2080445;28;20202;-61
2023/03/14 00:21:15;;;;;;;51.77;18.23;;;;;;;4.48;100.00;101690.56;2079943;28;20197;-61
2023/03/14 00:22:16;;;;;;;43.57;17.67;;;;;;;4.47;100.00;101695.25;2079806;28;20293;-60
2023/03/14 00:23:16;;;;;;;46.33;17.30;;;;;;;3.83;100.00;101598.44;2079627;28;20186;-60
2023/03/14 00:24:16;;;;;;;43.93;18.37;;;;;;;4.28;100.00;101661.59;2079777;28;20177;-61
2023/03/14 00:25:17;;;;;;;37.03;17.27;;;;;;;4.41;100.00;101687.72;2072416;28;20193;-61
2023/03/14 00:26:20;;;;;;;24.43;15.30;;;;;;;4.26;100.00;101669.41;2079567;28;20206;-61
2023/03/14 00:27:21;;;;;;;20.95;14.55;;;;;;;4.28;100.00;101680.78;2080479;28;20263;-60
2023/03/14 00:28:21;;;;;;;20.30;14.90;;;;;;;4.20;100.00;101688.09;2079631;28;20199;-61
2023/03/14 00:29:21;;;;;;;20.23;15.60;;;;;;;4.11;100.00;101681.25;2074981;28;20295;-61
2023/03/14 00:30:22;;;;;;;17.97;15.10;;;;;;;3.99;100.00;101668.50;2075712;28;20660;-60
2023/03/14 00:31:22;;;;;;;21.30;15.50;;;;;;;4.00;100.00;101672.03;2077958;28;20208;-61
2023/03/14 00:32:23;;;;;;;19.60;14.83;;;;;;;3.94;100.00;101674.28;2072901;28;20235;-61
2023/03/14 00:33:23;;;;;;;23.00;15.43;;;;;;;3.19;100.00;101558.00;2080018;28;20205;-60
2023/03/14 00:34:28;;;;;;;20.17;14.87;;;;;;;3.73;100.00;101653.84;2080302;28;20765;-61
2023/03/14 00:35:29;;;;;;;18.50;14.57;;;;;;;3.85;100.00;101670.19;2080025;28;20250;-60
2023/03/14 00:36:29;;;;;;;20.90;15.20;;;;;;;3.82;100.00;101668.94;2080103;28;20290;-60
2023/03/14 00:37:30;;;;;;;20.10;14.03;;;;;;;3.80;100.00;101671.25;2080318;28;20255;-60
2023/03/14 00:38:31;;;;;;;20.67;14.07;;;;;;;3.83;100.00;101667.78;2079657;28;20220;-60
2023/03/14 00:39:32;;;;;;;20.30;15.18;;;;;;;3.74;100.00;101653.50;2076520;28;20198;-60
2023/03/14 00:40:32;;;;;;;20.50;13.53;;;;;;;3.81;100.00;101678.34;2073976;28;20265;-61
2023/03/14 00:41:32;;;;;;;19.30;13.50;;;;;;;3.81;100.00;101663.81;2079486;28;20615;-60
2023/03/14 00:42:33;;;;;;;18.70;13.37;;;;;;;3.80;100.00;101654.78;2072184;28;20201;-60
2023/03/14 00:43:34;;;;;;;18.17;13.00;;;;;;;3.77;100.00;101671.97;2079956;28;20302;-61
2023/03/14 00:44:34;;;;;;;15.90;12.53;;;;;;;3.79;100.00;101666.91;2080172;28;20283;-61
2023/03/14 00:45:35;;;;;;;17.03;13.03;;;;;;;3.80;100.00;101668.50;2074657;28;20704;-61
2023/03/14 00:46:35;;;;;;;16.07;13.10;;;;;;;3.68;100.00;101643.19;2076605;28;20193;-60
2023/03/14 00:47:36;;;;;;;17.60;12.87;;;;;;;3.82;100.00;101662.66;2080427;28;20189;-61
2023/03/14 00:48:37;;;;;;;15.57;12.47;;;;;;;3.79;100.00;101650.47;2079531;28;20181;-61
2023/03/14 00:49:37;;;;;;;14.87;11.80;;;;;;;3.84;100.00;101655.66;2079705;28;20186;-60
2023/03/14 00:50:37;;;;;;;15.20;11.53;;;;;;;3.78;100.00;101654.38;2080611;28;20173;-60
2023/03/14 00:51:38;;;;;;;13.87;10.80;;;;;;;3.83;100.00;101656.81;2080243;28;20196;-61
2023/03/14 00:52:38;;;;;;;13.13;10.97;;;;;;;3.83;100.00;101654.06;2079753;28;20710;-60
2023/03/14 00:53:39;;;;;;;13.73;10.83;;;;;;;3.87;100.00;101654.13;2079715;28;20227;-60
2023/03/14 00:54:40;;;;;;;15.37;10.87;;;;;;;3.84;100.00;101652.16;2075674;28;20186;-60
2023/03/14 00:55:42;;;;;;;15.20;10.70;;;;;;;3.84;100.00;101654.88;2075450;28;20221;-60
2023/03/14 00:56:42;;;;;;;13.30;9.65;;;;;;;3.84;100.00;101657.63;2080470;28;20184;-60
2023/03/14 00:57:43;;;;;;;12.20;9.80;;;;;;;3.88;100.00;101666.69;2080013;28;20215;-60
2023/03/14 00:58:44;;;;;;;13.57;10.20;;;;;;;3.17;100.00;101543.91;2079470;28;20545;-60
2023/03/14 00:59:44;;;;;;;14.73;9.77;;;;;;;3.85;100.00;101662.72;2071884;28;20185;-60
2023/03/14 01:00:46;;;;;;;13.67;10.93;;;;;;;3.85;100.00;101664.69;2079534;28;20258;-60
2023/03/14 01:01:46;;;;;;;13.68;11.13;;;;;;;3.81;100.00;101667.38;2073877;28;20182;-61
2023/03/14 01:02:47;;;;;;;15.03;10.90;;;;;;;3.85;100.00;101656.47;2076969;28;20187;-61
2023/03/14 01:03:47;;;;;;;14.30;11.00;;;;;;;3.81;100.00;101661.88;2079974;28;20199;-61
2023/03/14 01:04:49;;;;;;;12.80;11.07;;;;;;;3.80;100.00;101665.75;2080078;28;20581;-60
2023/03/14 01:05:50;;;;;;;15.27;10.70;;;;;;;3.77;100.00;101671.19;2084730;28;20225;-60
2023/03/14 01:06:50;;;;;;;14.10;11.10;;;;;;;3.79;100.00;101671.63;2080189;28;20178;-61
2023/03/14 01:07:51;;;;;;;14.80;10.73;;;;;;;3.80;100.00;101671.25;2080540;28;20180;-60
2023/03/14 01:08:52;;;;;;;12.70;9.33;;;;;;;3.69;100.00;101664.75;2079246;28;20656;-60
2023/03/14 01:09:53;;;;;;;13.65;10.10;;;;;;;3.52;100.00;101640.53;2081625;28;20199;-61
2023/03/14 01:10:53;;;;;;;13.30;10.43;;;;;;;3.69;100.00;101674.94;2082448;28;20260;-61
2023/03/14 01:11:54;;;;;;;20.43;15.37;;;;;;;3.41;100.00;101636.78;2080375;28;20571;-60
2023/03/14 01:12:54;;;;;;;16.73;13.47;;;;;;;3.58;100.00;101671.97;2079686;28;20274;-60
2023/03/14 01:13:55;;;;;;;18.90;14.90;;;;;;;3.57;100.00;101677.81;2077839;28;20669;-61
2023/03/14 01:14:55;;;;;;;24.07;18.00;;;;;;;3.57;100.00;101678.59;2073047;28;20188;-61
2023/03/14 01:16:01;;;;;;;23.00;17.50;;;;;;;3.10;100.00;101609.50;2080350;28;20188;-60
2023/03/14 01:17:01;;;;;;;24.20;17.58;;;;;;;3.57;100.00;101678.59;2072250;28;20194;-61
2023/03/14 01:18:03;;;;;;;28.40;17.93;;;;;;;3.55;100.00;101674.63;2079128;28;20288;-61
2023/03/14 01:19:03;;;;;;;30.65;18.40;;;;;;;3.47;100.00;101675.63;2079521;28;20968;-61
2023/03/14 01:20:05;;;;;;;24.80;18.00;;;;;;;3.27;100.00;101649.34;2080034;28;20562;-61
2023/03/14 01:21:13;;;;;;;25.48;17.27;;;;;;;3.48;100.00;101669.78;2079991;28;20209;-61
2023/03/14 01:22:13;;;;;;;24.67;18.10;;;;;;;3.45;100.00;101675.97;2080737;28;20192;-61
2023/03/14 01:23:14;;;;;;;24.37;17.03;;;;;;;3.46;100.00;101679.53;2081222;28;20196;-61
2023/03/14 01:24:14;;;;;;;25.03;17.00;;;;;;;3.37;100.00;101659.75;2081275;28;20188;-61
2023/03/14 01:25:16;;;;;;;25.77;17.43;;;;;;;3.46;100.00;101666.63;2081612;28;20191;-61
2023/03/14 01:26:18;;;;;;;24.40;17.42;;;;;;;3.48;100.00;101669.78;2081825;28;20230;-61
2023/03/14 01:27:19;;;;;;;22.65;17.35;;;;;;;3.52;100.00;101672.59;2073794;28;20244;-61
2023/03/14 01:28:19;;;;;;;21.33;17.50;;;;;;;3.49;100.00;101671.38;2079964;28;20545;-61
2023/03/14 01:29:20;;;;;;;24.23;17.40;;;;;;;2.51;100.00;101504.13;2080899;28;20216;-61
2023/03/14 01:30:20;;;;;;;22.57;17.13;;;;;;;3.49;100.00;101667.84;2081433;28;20198;-61
2023/03/14 01:31:22;;;;;;;24.40;18.10;;;;;;;3.49;100.00;101684.31;2081641;28;20197;-61
2023/03/14 01:32:23;;;;;;;21.63;17.73;;;;;;;3.51;100.00;101666.34;2081003;28;20201;-61
2023/03/14 01:33:24;;;;;;;25.30;17.85;;;;;;;3.57;100.00;101661.34;2081430;28;20189;-60
2023/03/14 01:34:24;;;;;;;22.17;16.40;;;;;;;3.59;100.00;101653.59;2081529;28;20239;-61
2023/03/14 01:35:24;;;;;;;21.27;16.60;;;;;;;3.52;100.00;101640.53;2081837;28;20205;-61
2023/03/14 01:36:25;;;;;;;22.23;16.50;;;;;;;3.67;100.00;101663.53;2081706;28;20193;-61
2023/03/14 01:37:25;;;;;;;21.17;15.57;;;;;;;3.70;100.00;101662.81;2081348;28;20308;-61
2023/03/14 01:38:26;;;;;;;25.87;18.70;;;;;;;3.66;100.00;101660.00;2075719;28;20201;-61
2023/03/14 01:39:28;;;;;;;26.03;18.77;;;;;;;3.65;100.00;101669.38;2076971;28;20185;-61
2023/03/14 01:40:28;;;;;;;25.73;18.48;;;;;;;3.47;100.00;101638.06;2079530;28;20585;-61
2023/03/14 01:41:29;;;;;;;24.83;19.53;;;;;;;3.51;100.00;101666.34;2080919;28;20209;-61
2023/03/14 01:42:29;;;;;;;25.20;19.60;;;;;;;3.46;100.00;101666.63;2081003;28;20253;-61
2023/03/14 01:43:30;;;;;;;23.80;17.70;;;;;;;3.44;100.00;101659.91;2081746;28;20187;-61
2023/03/14 01:44:55;;;;;;;24.98;17.77;;;;;;;3.44;100.00;101663.44;2081667;28;20211;-61
2023/03/14 01:46:45;;;;;;;23.00;17.02;;;;;;;3.42;100.00;101663.00;2081260;28;20635;-61
2023/03/14 01:47:45;;;;;;;22.77;16.88;;;;;;;3.39;100.00;101660.97;2077751;28;20229;-61
2023/03/14 01:49:04;;;;;;;19.10;15.90;;;;;;;3.35;100.00;101656.59;2080773;28;20197;-61
2023/03/14 01:50:10;;;;;;;20.55;16.17;;;;;;;3.35;100.00;101645.63;2081511;28;20196;-60
2023/03/14 01:51:18;;;;;;;26.75;17.40;;;;;;;3.33;100.00;101645.97;2081404;28;20217;-62
2023/03/14 01:52:46;;;;;;;20.42;16.00;;;;;;;3.36;100.00;101644.47;2080999;28;20713;-61
2023/03/14 01:53:50;;;;;;;23.90;14.95;;;;;;;3.38;100.00;101644.94;2080702;28;20196;-61
2023/03/14 01:54:55;;;;;;;33.13;16.65;;;;;;;3.38;100.00;101648.44;2080941;28;20622;-61
2023/03/14 01:55:57;;;;;;;42.13;17.58;;;;;;;3.40;100.00;101637.94;2081493;28;20552;-61
2023/03/14 01:57:10;;;;;;;34.95;16.98;;;;;;;3.44;100.00;101633.28;2074951;28;20189;-61
2023/03/14 01:58:11;;;;;;;22.20;14.40;;;;;;;3.47;100.00;101632.59;2079631;28;20288;-61
2023/03/14 01:59:12;;;;;;;18.60;14.07;;;;;;;3.44;100.00;101618.81;2080808;28;20192;-61
2023/03/14 02:00:20;;;;;;;20.90;13.80;;;;;;;3.52;100.00;101656.16;2081395;28;20200;-61
2023/03/14 02:01:25;;;;;;;17.42;14.15;;;;;;;3.53;100.00;101624.84;2076992;28;20186;-61
2023/03/14 02:02:27;;;;;;;16.30;13.50;;;;;;;3.59;100.00;101628.91;2076584;28;20292;-61
2023/03/14 02:03:30;;;;;;;19.48;13.32;;;;;;;3.11;100.00;101548.09;2080991;28;20205;-60
2023/03/14 02:04:34;;;;;;;18.88;13.57;;;;;;;3.66;100.00;101629.06;2081119;28;20663;-61
2023/03/14 02:05:38;;;;;;;15.25;12.82;;;;;;;3.71;100.00;101632.31;2081191;28;20182;-62
2023/03/14 02:06:48;;;;;;;14.25;12.40;;;;;;;3.72;100.00;101624.84;2081531;28;20299;-61
2023/03/14 02:07:54;;;;;;;16.45;12.40;;;;;;;3.74;100.00;101617.84;2081354;28;20157;-61
2023/03/14 02:08:55;;;;;;;15.25;12.45;;;;;;;3.73;100.00;101619.03;2080467;28;20644;-61
2023/03/14 02:09:58;;;;;;;13.83;11.83;;;;;;;3.71;100.00;101626.81;2083534;28;20635;-61
2023/03/14 02:10:58;;;;;;;14.95;12.85;;;;;;;3.68;100.00;101610.28;2080979;28;20198;-61
2023/03/14 02:11:59;;;;;;;19.43;12.47;;;;;;;3.69;100.00;101629.13;2081541;28;20247;-61
2023/03/14 02:13:02;;;;;;;16.97;11.93;;;;;;;3.75;100.00;101618.66;2080812;28;20558;-60
2023/03/14 02:14:03;;;;;;;13.63;12.15;;;;;;;3.73;100.00;101624.50;2081264;28;20216;-61
2023/03/14 02:15:04;;;;;;;15.07;12.40;;;;;;;3.75;100.00;101646.06;2081020;28;20197;-60
2023/03/14 02:16:05;;;;;;;14.13;11.80;;;;;;;3.75;100.00;101618.66;2081249;28;20670;-61
2023/03/14 02:17:07;;;;;;;15.48;12.70;;;;;;;3.81;100.00;101614.47;2080845;28;20456;-61
2023/03/14 02:18:08;;;;;;;17.35;12.60;;;;;;;3.75;100.00;101604.97;2079998;28;20180;-61
2023/03/14 02:19:11;;;;;;;15.05;12.95;;;;;;;3.78;100.00;101613.25;2072880;28;20185;-61
2023/03/14 02:20:12;;;;;;;15.07;13.43;;;;;;;3.79;100.00;101614.06;2081585;28;20197;-61
2023/03/14 02:21:21;;;;;;;15.83;13.70;;;;;;;3.78;100.00;101604.22;2081232;28;20223;-61
2023/03/14 02:22:22;;;;;;;17.50;14.93;;;;;;;2.84;100.00;101463.41;2080788;28;20646;-61
2023/03/14 02:23:46;;;;;;;17.13;14.00;;;;;;;3.76;100.00;101618.31;2081008;28;20556;-61
2023/03/14 02:25:00;;;;;;;17.15;12.93;;;;;;;3.78;100.00;101615.19;2081233;28;20192;-61
2023/03/14 02:26:13;;;;;;;19.33;14.00;;;;;;;3.76;100.00;101607.34;2081603;28;20186;-61
2023/03/14 02:27:18;;;;;;;16.95;14.00;;;;;;;3.75;100.00;101600.25;2081549;28;20169;-61
2023/03/14 02:28:19;;;;;;;15.90;13.90;;;;;;;2.90;100.00;101462.75;2072818;28;20294;-61
2023/03/14 02:29:20;;;;;;;15.15;13.43;;;;;;;3.82;100.00;101611.38;2080209;28;20202;-61
2023/03/14 02:30:23;;;;;;;18.37;13.30;;;;;;;3.82;100.00;101607.81;2081066;28;20277;-61
2023/03/14 02:31:24;;;;;;;16.33;12.52;;;;;;;3.87;100.00;101605.59;2081148;28;20551;-61
2023/03/14 02:32:27;;;;;;;15.10;12.00;;;;;;;3.88;100.00;101604.44;2080818;28;20323;-62
2023/03/14 02:33:27;;;;;;;13.73;12.27;;;;;;;3.92;100.00;101605.28;2080192;28;20208;-61
2023/03/14 02:34:29;;;;;;;22.00;13.67;;;;;;;3.93;100.00;101604.13;2080889;28;20498;-61
2023/03/14 02:35:34;;;;;;;13.75;12.15;;;;;;;3.85;100.00;101585.16;2080883;28;20187;-61
2023/03/14 02:36:35;;;;;;;15.75;12.10;;;;;;;3.97;100.00;101606.94;2081179;28;20185;-61
2023/03/14 02:37:40;;;;;;;14.63;11.87;;;;;;;3.91;100.00;101589.97;2080935;28;20201;-61
2023/03/14 02:38:51;;;;;;;14.52;11.57;;;;;;;3.70;100.00;101561.38;2072837;28;20300;-61
2023/03/14 02:39:52;;;;;;;16.98;12.43;;;;;;;4.02;100.00;101590.97;2072927;28;20173;-61
2023/03/14 02:40:53;;;;;;;15.30;12.50;;;;;;;4.03;100.00;101603.53;2080808;28;20212;-61
2023/03/14 02:41:53;;;;;;;17.53;11.60;;;;;;;4.07;100.00;101595.34;2079898;28;20237;-61
2023/03/14 02:42:54;;;;;;;15.87;12.10;;;;;;;4.07;100.00;101593.44;2074330;28;20193;-61
2023/03/14 02:43:54;;;;;;;18.80;12.90;;;;;;;4.07;100.00;101593.44;2077181;28;20228;-61
2023/03/14 02:45:20;;;;;;;16.10;11.47;;;;;;;4.07;100.00;101593.44;2080934;28;20303;-62
2023/03/14 02:46:21;;;;;;;17.90;11.95;;;;;;;4.08;100.00;101594.19;2074955;28;20308;-60
2023/03/14 02:47:27;;;;;;;14.50;11.45;;;;;;;4.08;100.00;101583.22;2077382;28;20203;-61
2023/03/14 02:48:33;;;;;;;15.55;11.20;;;;;;;4.07;100.00;101585.19;2080695;28;20184;-61
2023/03/14 02:49:33;;;;;;;16.40;11.85;;;;;;;3.61;100.00;101523.25;2080226;28;20202;-61
2023/03/14 02:50:34;;;;;;;16.40;11.37;;;;;;;3.37;100.00;101484.41;2078416;28;20180;-62
2023/03/14 02:51:35;;;;;;;18.55;12.07;;;;;;;4.04;100.00;101590.59;2074286;28;20182;-61
2023/03/14 02:52:36;;;;;;;15.00;11.13;;;;;;;4.05;100.00;101589.47;2080424;28;20213;-61
2023/03/14 02:53:37;;;;;;;26.63;11.77;;;;;;;4.05;100.00;101592.97;2081063;28;20194;-61
2023/03/14 02:54:38;;;;;;;26.00;12.27;;;;;;;4.03;100.00;101589.81;2085787;28;20250;-61
2023/03/14 02:55:38;;;;;;;27.60;13.27;;;;;;;4.01;100.00;101591.34;2082620;28;20260;-61
2023/03/14 02:56:39;;;;;;;27.70;12.77;;;;;;;3.79;100.00;101565.47;2075589;28;20248;-61
2023/03/14 02:57:39;;;;;;;29.87;13.70;;;;;;;3.97;100.00;101588.53;2076908;28;20201;-61
2023/03/14 02:58:39;;;;;;;26.23;13.57;;;;;;;3.98;100.00;101592.06;2080238;28;20200;-61
2023/03/14 02:59:40;;;;;;;28.27;13.20;;;;;;;3.93;100.00;101597.84;2080242;28;20543;-61
2023/03/14 03:00:40;;;;;;;20.33;12.67;;;;;;;3.26;100.00;101495.19;2080733;28;20287;-60
2023/03/14 03:01:41;;;;;;;16.33;12.53;;;;;;;3.86;100.00;101597.72;2081216;28;20182;-61
2023/03/14 03:02:41;;;;;;;18.23;11.43;;;;;;;3.83;100.00;101599.25;2080620;28;20617;-60
2023/03/14 03:03:42;;;;;;;15.37;12.27;;;;;;;3.84;100.00;101595.34;2080434;28;20278;-61
2023/03/14 03:04:42;;;;;;;16.23;12.63;;;;;;;3.83;100.00;101596.50;2080921;28;20201;-61
2023/03/14 03:05:43;;;;;;;20.67;12.47;;;;;;;3.87;100.00;101594.63;2080576;28;20605;-61
2023/03/14 03:06:44;;;;;;;18.63;12.18;;;;;;;3.84;100.00;101586.34;2080812;28;20193;-60
2023/03/14 03:07:44;;;;;;;19.80;12.33;;;;;;;3.84;100.00;101591.81;2080829;28;20635;-61
2023/03/14 03:08:45;;;;;;;15.33;11.83;;;;;;;3.83;100.00;101587.47;2080225;28;20572;-61
2023/03/14 03:09:45;;;;;;;27.57;13.17;;;;;;;3.87;100.00;101589.13;2081182;28;20202;-60
2023/03/14 03:10:46;;;;;;;29.47;13.70;;;;;;;3.88;100.00;101593.47;2080849;28;20191;-61
2023/03/14 03:11:46;;;;;;;27.53;12.80;;;;;;;3.90;100.00;101593.09;2074208;28;20717;-61
2023/03/14 03:12:47;;;;;;;23.90;12.50;;;;;;;3.82;100.00;101583.94;2077845;28;20200;-61
2023/03/14 03:13:47;;;;;;;31.97;13.83;;;;;;;3.86;100.00;101595.75;2080229;28;20204;-60
2023/03/14 03:14:48;;;;;;;28.87;13.03;;;;;;;3.10;100.00;101469.00;2077379;28;20199;-61
2023/03/14 03:15:48;;;;;;;28.77;13.93;;;;;;;3.90;100.00;101598.59;2074547;28;20177;-60
2023/03/14 03:16:48;;;;;;;29.90;13.93;;;;;;;3.91;100.00;101589.19;2079804;28;20634;-61
2023/03/14 03:17:49;;;;;;;24.77;13.27;;;;;;;3.15;100.00;101474.19;2072959;28;20175;-61
2023/03/14 03:18:49;;;;;;;25.20;14.30;;;;;;;3.91;100.00;101597.44;2080369;28;20195;-61
2023/03/14 03:19:50;;;;;;;18.57;12.67;;;;;;;3.90;100.00;101599.34;2080146;28;20259;-61
2023/03/14 03:20:50;;;;;;;28.67;13.03;;;;;;;3.91;100.00;101603.69;2080821;28;20651;-61
2023/03/14 03:21:50;;;;;;;29.23;13.60;;;;;;;3.86;100.00;101609.47;2078793;28;20231;-61
2023/03/14 03:22:51;;;;;;;28.13;12.27;;;;;;;3.87;100.00;101608.34;2080310;28;20202;-61
2023/03/14 03:23:52;;;;;;;22.57;11.13;;;;;;;3.81;100.00;101614.47;2080238;28;20186;-61
2023/03/14 03:24:53;;;;;;;20.73;12.68;;;;;;;3.76;100.00;101615.56;2080584;28;20657;-61
2023/03/14 03:25:53;;;;;;;15.77;10.87;;;;;;;3.20;100.00;101523.22;2081054;28;20556;-61
2023/03/14 03:26:53;;;;;;;16.03;12.47;;;;;;;3.70;100.00;101608.00;2072950;28;20222;-61
2023/03/14 03:27:54;;;;;;;15.40;10.90;;;;;;;3.66;100.00;101612.59;2079387;28;20201;-61
2023/03/14 03:28:55;;;;;;;13.97;10.80;;;;;;;3.62;100.00;101615.28;2080168;28;20553;-61
2023/03/14 03:29:55;;;;;;;18.93;11.40;;;;;;;3.59;100.00;101613.25;2080353;28;20667;-61
2023/03/14 03:30:55;;;;;;;16.17;11.67;;;;;;;3.55;100.00;101622.56;2077277;28;20193;-61
2023/03/14 03:31:56;;;;;;;15.83;12.40;;;;;;;3.54;100.00;101618.25;2074967;28;20206;-61
2023/03/14 03:32:56;;;;;;;17.47;12.37;;;;;;;3.52;100.00;101615.84;2080274;28;20559;-61
2023/03/14 03:33:57;;;;;;;17.40;13.10;;;;;;;3.51;100.00;101616.22;2080446;28;20562;-61
2023/03/14 03:34:57;;;;;;;15.43;12.77;;;;;;;3.40;100.00;101605.06;2072492;28;20186;-61
2023/03/14 03:35:58;;;;;;;18.67;12.83;;;;;;;3.41;100.00;101616.78;2079382;28;20734;-61
2023/03/14 03:36:58;;;;;;;17.43;12.53;;;;;;;3.09;100.00;101596.16;2080407;28;20202;-61
2023/03/14 03:37:59;;;;;;;33.27;15.07;;;;;;;3.39;100.00;101619.88;2080416;28;20338;-61
2023/03/14 03:38:59;;;;;;;42.07;15.00;;;;;;;3.34;100.00;101602.94;2079981;28;20677;-61
2023/03/14 03:40:00;;;;;;;41.00;14.87;;;;;;;3.26;100.00;101595.72;2077962;28;20188;-61
2023/03/14 03:41:07;;;;;;;33.43;14.97;;;;;;;3.32;100.00;101617.00;2077901;28;20224;-60
2023/03/14 03:42:08;;;;;;;31.77;14.25;;;;;;;2.66;100.00;101512.28;2080410;28;20271;-61
2023/03/14 03:43:08;;;;;;;18.47;12.50;;;;;;;3.22;100.00;101600.31;2080246;28;20193;-61
2023/03/14 03:44:09;;;;;;;13.97;11.43;;;;;;;3.30;100.00;101607.56;2080779;28;20191;-60
2023/03/14 03:45:09;;;;;;;19.40;12.07;;;;;;;3.30;100.00;101613.03;2080689;28;20668;-61
2023/03/14 03:46:10;;;;;;;15.37;11.37;;;;;;;3.31;100.00;101609.94;2080173;28;20204;-61
2023/03/14 03:47:10;;;;;;;21.37;12.37;;;;;;;3.13;100.00;101578.63;2080712;28;20193;-61
2023/03/14 03:48:11;;;;;;;17.13;11.77;;;;;;;3.30;100.00;101613.84;2087388;28;20196;-61
2023/03/14 03:49:11;;;;;;;17.83;11.73;;;;;;;3.32;100.00;101599.75;2085216;28;20177;-61
2023/03/14 03:50:12;;;;;;;13.23;10.77;;;;;;;3.34;100.00;101603.72;2073194;28;20185;-61
2023/03/14 03:51:14;;;;;;;17.83;12.17;;;;;;;3.34;100.00;101611.16;2080858;28;20211;-61
2023/03/14 03:52:14;;;;;;;22.58;13.38;;;;;;;2.61;100.00;101487.13;2072435;28;20182;-61
2023/03/14 03:53:15;;;;;;;14.93;11.80;;;;;;;3.34;100.00;101602.94;2079532;28;20200;-61
2023/03/14 03:54:15;;;;;;;20.43;12.60;;;;;;;3.32;100.00;101607.97;2080575;28;20192;-61
2023/03/14 03:55:16;;;;;;;19.03;12.67;;;;;;;3.25;100.00;101597.69;2075382;28;20624;-61
2023/03/14 03:56:17;;;;;;;15.47;12.03;;;;;;;2.74;100.00;101522.25;2072397;28;20198;-62
2023/03/14 03:57:17;;;;;;;16.27;11.23;;;;;;;3.32;100.00;101605.25;2075038;28;20212;-61
2023/03/14 03:58:18;;;;;;;14.17;10.87;;;;;;;3.32;100.00;101613.47;2079915;28;20758;-61
2023/03/14 03:59:18;;;;;;;16.00;11.50;;;;;;;3.14;100.00;101582.94;2079970;28;20285;-61
2023/03/14 04:00:19;;;;;;;15.07;11.33;;;;;;;3.31;100.00;101609.94;2080885;28;20670;-60
2023/03/14 04:01:19;;;;;;;15.20;11.27;;;;;;;3.23;100.00;101602.72;2080288;28;20556;-61
2023/03/14 04:02:20;;;;;;;14.10;10.90;;;;;;;3.29;100.00;101612.22;2079946;28;20192;-61
2023/03/14 04:03:20;;;;;;;13.83;10.83;;;;;;;3.30;100.00;101613.84;2080095;28;20686;-61
2023/03/14 04:04:21;;;;;;;17.37;11.13;;;;;;;3.27;100.00;101614.56;2080550;28;20213;-60
2023/03/14 04:05:21;;;;;;;16.30;10.73;;;;;;;3.25;100.00;101616.88;2080202;28;20203;-61
2023/03/14 04:06:23;;;;;;;15.03;11.30;;;;;;;3.27;100.00;101609.06;2080358;28;20304;-61
2023/03/14 04:07:23;;;;;;;25.45;10.85;;;;;;;3.21;100.00;101601.50;2079820;28;20177;-60
2023/03/14 04:08:23;;;;;;;15.77;11.23;;;;;;;3.29;100.00;101611.44;2072144;28;20366;-61
2023/03/14 04:09:24;;;;;;;18.27;11.00;;;;;;;3.30;100.00;101602.06;2079506;28;20212;-61
2023/03/14 04:10:24;;;;;;;25.93;12.23;;;;;;;3.25;100.00;101596.88;2086352;28;20257;-61
2023/03/14 04:11:25;;;;;;;22.20;12.43;;;;;;;3.28;100.00;101599.69;2082992;28;20272;-60
2023/03/14 04:12:25;;;;;;;24.63;11.60;;;;;;;3.29;100.00;101598.53;2075927;28;20197;-61
2023/03/14 04:13:27;;;;;;;20.37;12.27;;;;;;;3.26;100.00;101596.53;2075112;28;20576;-61
2023/03/14 04:14:28;;;;;;;27.67;11.38;;;;;;;3.27;100.00;101602.78;2080363;28;20224;-61
2023/03/14 04:15:28;;;;;;;24.57;12.07;;;;;;;3.24;100.00;101596.06;2080127;28;20188;-61
2023/03/14 04:16:31;;;;;;;25.47;12.00;;;;;;;3.22;100.00;101594.84;2080647;28;20185;-60
2023/03/14 04:17:31;;;;;;;18.80;11.70;;;;;;;3.24;100.00;101589.81;2072429;28;20654;-61
2023/03/14 04:18:32;;;;;;;17.53;11.27;;;;;;;3.23;100.00;101585.50;2078834;28;20215;-61
2023/03/14 04:19:32;;;;;;;20.73;11.63;;;;;;;3.22;100.00;101586.63;2073860;28;20273;-61
2023/03/14 04:20:34;;;;;;;18.67;11.80;;;;;;;3.20;100.00;101586.22;2077075;28;20655;-61
2023/03/14 04:21:35;;;;;;;41.60;14.05;;;;;;;3.17;100.00;101586.91;2077118;28;20191;-61
2023/03/14 04:22:35;;;;;;;41.97;13.93;;;;;;;3.16;100.00;101588.88;2079794;28;20511;-61
2023/03/14 04:23:36;;;;;;;35.77;12.80;;;;;;;3.13;100.00;101586.84;2078540;28;20184;-61
2023/03/14 04:24:36;;;;;;;45.30;13.17;;;;;;;3.07;100.00;101580.06;2072500;28;20181;-61
2023/03/14 04:25:37;;;;;;;31.93;12.77;;;;;;;3.08;100.00;101573.44;2080645;28;20725;-61
2023/03/14 04:26:37;;;;;;;28.67;11.90;;;;;;;2.64;100.00;101511.88;2072922;28;20190;-61
2023/03/14 04:27:38;;;;;;;23.73;11.30;;;;;;;3.14;100.00;101573.97;2078648;28;20192;-61
2023/03/14 04:28:39;;;;;;;20.17;11.93;;;;;;;2.87;100.00;101537.38;2074477;28;20647;-61
2023/03/14 04:29:39;;;;;;;22.70;12.10;;;;;;;3.14;100.00;101579.44;2075807;28;20205;-61
2023/03/14 04:30:39;;;;;;;29.03;12.73;;;;;;;3.04;100.00;101561.59;2080077;28;20199;-61
2023/03/14 04:31:40;;;;;;;20.97;12.43;;;;;;;2.44;100.00;101479.34;2080309;28;20177;-61
2023/03/14 04:32:40;;;;;;;24.60;12.87;;;;;;;3.10;100.00;101579.38;2078989;28;20648;-61
2023/03/14 04:33:41;;;;;;;29.77;13.57;;;;;;;3.07;100.00;101584.75;2072236;28;20263;-61
2023/03/14 04:34:41;;;;;;;22.90;13.37;;;;;;;2.98;100.00;101570.50;2079943;28;20204;-61
2023/03/14 04:35:41;;;;;;;21.10;13.47;;;;;;;3.04;100.00;101582.75;2079958;28;20196;-61
2023/03/14 04:36:42;;;;;;;29.40;13.87;;;;;;;3.06;100.00;101580.44;2080255;28;20665;-61
2023/03/14 04:37:43;;;;;;;38.17;15.30;;;;;;;3.06;100.00;101586.72;2079962;28;20320;-61
2023/03/14 04:38:43;;;;;;;22.97;13.93;;;;;;;3.08;100.00;101583.63;2079835;28;20684;-61
2023/03/14 04:39:44;;;;;;;20.90;12.73;;;;;;;3.08;100.00;101584.38;2079566;28;20609;-61
2023/03/14 04:40:44;;;;;;;20.17;13.37;;;;;;;3.10;100.00;101593.06;2080213;28;20247;-61
2023/03/14 04:41:45;;;;;;;24.20;13.90;;;;;;;2.89;100.00;101578.09;2080457;28;20229;-61